Data for 08/15/2013

Time Sea-Level Adjusted Pressure Absolute Pressure Temperature Relative Humidity Dew Point Precipitation   
(mb) (inHg) (mb) (inHg) (C) (F) (%) (C) (F) (mm) (in)
00:05 1023 30.21 852 25.16 15.8 60.4 40 2.2 36 0 0
00:10 1023 30.21 852 25.16 16.4 61.5 40 2.7 36.9 0 0
00:15 1023 30.21 852 25.16 16.1 60.9 40 2.7 36.8 0 0
00:20 1023 30.21 852 25.16 16.3 61.4 39 2.4 36.3 0 0
00:25 1023 30.21 852 25.16 16.6 61.9 39 2.6 36.6 0 0
00:30 1023 30.21 852 25.16 16.5 61.8 40 3 37.4 0 0
00:35 1023 30.21 852 25.16 16.4 61.5 39 2.6 36.6 0 0
00:40 1023 30.21 852 25.16 16.3 61.3 42 3.6 38.4 0 0
00:45 1023 30.21 852 25.16 15.1 59.2 46 3.7 38.7 0 0
00:50 1023 30.21 852 25.16 14.6 58.2 46 3.3 38 0 0
00:55 1023 30.21 852 25.16 14.5 58.1 47 3.4 38.1 0 0
01:00 1023 30.21 852 25.16 14.9 58.8 45 3.1 37.5 0 0
01:05 1023 30.21 852 25.16 15.1 59.2 44 3 37.4 0 0
01:10 1023 30.21 852 25.16 15.5 59.9 43 3 37.4 0 0
01:15 1023 30.21 852 25.16 15.6 60 45 3.9 39 0 0
01:20 1023 30.21 852 25.16 15.2 59.3 44 3.2 37.8 0 0
01:25 1023 30.21 852 25.16 15.6 60.1 43 3.3 37.9 0 0
01:30 1023 30.21 852 25.16 15.6 60 46 3.9 39.1 0 0
01:35 1023 30.21 852 25.16 15.5 60 44 3.5 38.3 0 0
01:40 1023 30.21 852 25.16 15.7 60.3 45 4 39.1 0 0
01:45 1023 30.21 852 25.16 15.5 59.8 46 4 39.1 0 0
01:50 1023 30.21 852 25.16 15.4 59.8 45 3.5 38.3 0 0
01:55 1023 30.21 852 25.16 15.6 60 45 3.6 38.6 0 0
02:00 1023 30.21 852 25.16 15.5 59.8 45 3.7 38.6 0 0
02:05 1023 30.21 852 25.16 14.9 58.9 49 4.4 40 0 0
02:10 1023 30.21 852 25.16 14.1 57.3 49 3.7 38.6 0 0
02:15 1023 30.21 852 25.16 13.8 56.8 50 3.7 38.6 0 0
02:20 1023 30.21 852 25.16 13.3 55.9 53 3.9 39 0 0
02:25 1023 30.21 852 25.16 12.8 55.1 54 3.8 38.9 0 0
02:30 1023 30.21 852 25.16 12.5 54.6 56 4 39.1 0 0
02:35 1023 30.21 852 25.16 12.3 54.2 53 3 37.5 0 0
02:40 1023 30.21 852 25.16 13.1 55.6 49 2.8 37.1 0 0
02:45 1022 30.18 852 25.16 14 57.1 47 3 37.4 0 0
02:50 1022 30.18 852 25.16 14.5 58.1 47 3.3 38 0 0
02:55 1022 30.18 852 25.16 14 57.3 49 3.4 38.2 0 0
03:00 1022 30.18 852 25.16 13.4 56.1 53 4 39.3 0 0
03:05 1022 30.18 852 25.16 12.5 54.5 54 3.5 38.2 0 0
03:10 1023 30.21 852 25.16 11.8 53.2 57 3.7 38.6 0 0
03:15 1022 30.18 852 25.16 10.9 51.7 61 3.6 38.6 0 0
03:20 1022 30.18 852 25.16 11 51.8 58 3.1 37.5 0 0
03:25 1023 30.21 852 25.16 11.2 52.2 57 3 37.4 0 0
03:30 1023 30.21 852 25.16 11.4 52.4 56 2.9 37.2 0 0
03:35 1023 30.21 852 25.16 12.4 54.2 50 2.2 36 0 0
03:40 1023 30.21 852 25.16 12.8 55.1 53 3.6 38.4 0 0
03:45 1023 30.21 852 25.16 12.1 53.8 54 3.2 37.8 0 0
03:50 1023 30.21 852 25.16 12.4 54.2 53 3.1 37.5 0 0
03:55 1023 30.21 852 25.16 12.2 54 52 2.6 36.7 0 0
04:00 1023 30.21 852 25.16 12.7 54.8 49 2.3 36.2 0 0
04:05 1023 30.21 852 25.16 12.9 55.2 50 2.9 37.2 0 0
04:10 1023 30.21 852 25.16 12.8 55.1 50 2.7 36.8 0 0
04:15 1023 30.21 852 25.16 12.2 54 56 3.7 38.6 0 0
04:20 1023 30.21 852 25.16 11.2 52.1 59 3.4 38.2 0 0
04:25 1023 30.21 852 25.16 10.5 50.9 58 2.8 37 0 0
04:30 1023 30.21 852 25.16 10.9 51.7 58 3.1 37.5 0 0
04:35 1023 30.21 852 25.16 10.7 51.3 60 3.3 37.9 0 0
04:40 1023 30.21 852 25.16 10.3 50.5 59 2.7 36.9 0 0
04:45 1023 30.21 852 25.16 11.3 52.3 53 2 35.7 0 0
04:50 1023 30.21 852 25.16 12.4 54.3 50 2.5 36.4 0 0
04:55 1023 30.21 852 25.16 12.8 55 50 2.6 36.6 0 0
05:00 1023 30.21 852 25.16 13.1 55.7 50 3.1 37.5 0 0
05:05 1023 30.21 852 25.16 12.3 54.1 56 3.8 38.9 0 0
05:10 1023 30.21 852 25.16 11.1 52 57 2.9 37.2 0 0
05:15 1023 30.21 852 25.16 11 51.8 57 3 37.3 0 0
05:20 1023 30.21 852 25.16 10.7 51.2 60 3.3 37.9 0 0
05:25 1023 30.21 852 25.16 10.4 50.6 60 2.9 37.2 0 0
05:30 1023 30.21 852 25.16 10.8 51.4 55 2.2 36 0 0
05:35 1023 30.21 852 25.16 11.7 53.1 53 2.4 36.4 0 0
05:40 1023 30.21 852 25.16 12.2 53.9 55 3.3 38 0 0
05:45 1023 30.21 852 25.16 11.3 52.3 59 3.5 38.3 0 0
05:50 1023 30.21 852 25.16 10.6 51 60 3.1 37.5 0 0
05:55 1023 30.21 852 25.16 10.3 50.6 60 2.9 37.2 0 0
06:00 1023 30.21 852 25.16 10.1 50.2 62 3.2 37.8 0 0
06:05 1023 30.21 852 25.16 9.8 49.7 62 3 37.4 0 0
06:10 1023 30.21 852 25.16 9.8 49.6 63 3 37.4 0 0
06:15 1023 30.21 852 25.16 9.8 49.6 63 3 37.4 0 0
06:20 1023 30.21 852 25.16 9.8 49.6 64 3.4 38.1 0 0
06:25 1023 30.21 852 25.16 9.4 48.9 66 3.3 38 0 0
06:30 1023 30.21 852 25.16 9.1 48.3 66 3.2 37.7 0 0
06:35 1023 30.21 852 25.16 9.1 48.3 65 2.8 37.1 0 0
06:40 1023 30.21 852 25.16 9.4 49 66 3.4 38 0 0
06:45 1023 30.21 852 25.16 9.3 48.8 66 3.3 37.9 0 0
06:50 1023 30.21 852 25.16 9.1 48.4 66 3.1 37.6 0 0
06:55 1023 30.21 852 25.16 9.9 49.9 63 3.2 37.8 0 0
07:00 1023 30.21 852 25.16 10.3 50.5 62 3.4 38.1 0 0
07:05 1023 30.21 852 25.16 10.3 50.5 64 3.7 38.7 0 0
07:10 1023 30.21 852 25.16 10.3 50.5 61 3.2 37.8 0 0
07:15 1023 30.21 852 25.16 11 51.7 59 3.2 37.8 0 0
07:20 1023 30.21 852 25.16 11.4 52.6 62 4.5 40.1 0 0
07:25 1023 30.21 852 25.16 11.2 52.2 63 4.5 40 0 0
07:30 1023 30.21 852 25.16 11.5 52.6 60 4.1 39.3 0 0
07:35 1023 30.21 852 25.16 12 53.7 58 4.1 39.3 0 0
07:40 1023 30.21 853 25.19 12.4 54.4 57 4.2 39.5 0 0
07:45 1023 30.21 853 25.19 12.7 54.9 61 5.4 41.7 0 0
07:50 1023 30.21 853 25.19 12.8 55.1 57 4.6 40.3 0 0
07:55 1024 30.24 853 25.19 13.3 55.9 62 6.3 43.3 0 0
08:00 1024 30.24 853 25.19 13.2 55.8 66 7.1 44.8 0 0
08:05 1024 30.24 853 25.19 13.4 56.1 64 6.8 44.2 0 0
08:10 1024 30.24 853 25.19 14 57.1 60 6.4 43.5 0 0
08:15 1024 30.24 853 25.19 14.8 58.6 54 5.6 42 0 0
08:20 1024 30.24 853 25.19 15.5 59.8 56 6.8 44.3 0 0
08:25 1024 30.24 853 25.19 15.9 60.7 51 5.8 42.5 0 0
08:30 1024 30.24 853 25.19 16.3 61.3 52 6.6 43.9 0 0
08:35 1024 30.24 853 25.19 16.8 62.2 47 5.5 41.9 0 0
08:40 1024 30.24 853 25.19 17.2 62.9 51 7.2 44.9 0 0
08:45 1024 30.24 853 25.19 17.6 63.7 43 4.9 40.8 0 0
08:50 1024 30.24 853 25.19 18.2 64.7 40 4.6 40.3 0 0
08:55 1024 30.24 853 25.19 18.6 65.5 39 4.7 40.5 0 0
09:00 1024 30.24 853 25.19 19.1 66.4 35 3.6 38.4 0 0
09:05 1024 30.24 853 25.19 19.2 66.5 36 4 39.2 0 0
09:10 1024 30.24 853 25.19 19.2 66.5 39 4.8 40.7 0 0
09:15 1024 30.24 853 25.19 19.5 67.1 38 5 41 0 0
09:20 1024 30.24 853 25.19 19.7 67.4 37 4.6 40.2 0 0
09:25 1023 30.21 853 25.19 19.8 67.7 35 4.1 39.3 0 0
09:30 1023 30.21 853 25.19 19.9 67.8 37 4.9 40.7 0 0
09:35 1023 30.21 853 25.19 20.1 68.2 32 3.2 37.8 0 0
09:40 1023 30.21 853 25.19 20.2 68.4 35 4.4 40 0 0
09:45 1023 30.21 853 25.19 20.7 69.2 35 4.6 40.4 0 0
09:50 1023 30.21 853 25.19 21.1 69.9 31 3.4 38.1 0 0
09:55 1023 30.21 852 25.16 21.2 70.2 34 5.1 41.2 0 0
10:00 1023 30.21 852 25.16 21.8 71.2 30 3.5 38.3 0 0
10:05 1023 30.21 852 25.16 22.2 72 32 4.8 40.7 0 0
10:10 1023 30.21 852 25.16 22.4 72.3 27 2.6 36.7 0 0
10:15 1023 30.21 852 25.16 22.9 73.3 29 4.1 39.4 0 0
10:20 1023 30.21 852 25.16 23.3 74 27 3.4 38.1 0 0
10:25 1023 30.21 852 25.16 22.9 73.3 27 3 37.4 0 0
10:30 1023 30.21 852 25.16 22.8 73 29 4.1 39.3 0 0
10:35 1023 30.21 852 25.16 22.9 73.2 27 2.9 37.3 0 0
10:40 1023 30.21 852 25.16 23.1 73.6 26 3 37.3 0 0
10:45 1023 30.21 852 25.16 23.3 74 26 2.9 37.2 0 0
10:50 1023 30.21 852 25.16 23.4 74 26 3.2 37.8 0 0
10:55 1023 30.21 852 25.16 23.2 73.8 28 4 39.2 0 0
11:00 1023 30.21 852 25.16 23.1 73.6 31 5.5 41.8 0 0
11:05 1023 30.21 852 25.16 23.3 73.9 30 5.1 41.3 0 0
11:10 1023 30.21 852 25.16 23.2 73.8 32 5.7 42.3 0 0
11:15 1023 30.21 852 25.16 23.3 73.9 33 6.4 43.4 0 0
11:20 1023 30.21 852 25.16 23.3 74 30 5.1 41.2 0 0
11:25 1023 30.21 852 25.16 23.6 74.4 31 5.7 42.3 0 0
11:30 1023 30.21 852 25.16 23.5 74.3 30 5 41 0 0
11:35 1023 30.21 852 25.16 23.7 74.7 29 4.9 40.8 0 0
11:40 1023 30.21 852 25.16 23.9 75 34 7.4 45.3 0 0
11:45 1023 30.21 852 25.16 24.1 75.4 33 7 44.6 0 0
11:50 1023 30.21 852 25.16 24.2 75.6 29 5.3 41.5 0 0
11:55 1023 30.21 852 25.16 24.4 76 28 5.1 41.1 0 0
12:00 1023 30.21 852 25.16 24.6 76.3 26 4.2 39.5 0 0
12:05 1023 30.21 852 25.16 24.8 76.7 27 5.1 41.1 0 0
12:10 1023 30.21 852 25.16 24.7 76.4 28 5.2 41.3 0 0
12:15 1023 30.21 852 25.16 24.9 76.9 27 4.9 40.9 0 0
12:20 1023 30.21 852 25.16 25 77 27 4.8 40.6 0 0
12:25 1023 30.21 852 25.16 25 77 30 6.5 43.7 0 0
12:30 1023 30.21 852 25.16 25.3 77.6 25 4.4 39.9 0 0
12:35 1023 30.21 852 25.16 25.4 77.7 27 5.5 41.8 0 0
12:40 1023 30.21 852 25.16 25.9 78.6 23 3.4 38.2 0 0
12:45 1023 30.21 852 25.16 26 78.7 25 4.5 40.1 0 0
12:50 1023 30.21 852 25.16 26.4 79.5 24 4.2 39.5 0 0
12:55 1023 30.21 852 25.16 26.2 79.1 24 4.5 40.2 0 0
13:00 1023 30.21 852 25.16 26.4 79.6 24 4.5 40.1 0 0
13:05 1023 30.21 852 25.16 26.6 79.9 28 6.9 44.3 0 0
13:10 1023 30.21 852 25.16 27.1 80.8 22 4.1 39.4 0 0
13:15 1023 30.21 852 25.16 27.3 81.1 22 3.9 39 0 0
13:20 1023 30.21 852 25.16 27.1 80.8 23 4.3 39.8 0 0
13:25 1023 30.21 852 25.16 27.4 81.2 21 3.7 38.6 0 0
13:30 1023 30.21 852 25.16 27.4 81.3 21 3.2 37.8 0 0
13:35 1023 30.21 852 25.16 27.7 81.8 22 4.3 39.8 0 0
13:40 1022 30.18 852 25.16 27.7 81.8 20 2.7 36.8 0 0
13:45 1022 30.18 852 25.16 27.8 82.1 18 1.9 35.5 0 0
13:50 1022 30.18 852 25.16 28.1 82.6 20 3.2 37.7 0 0
13:55 1022 30.18 851 25.13 28.4 83 20 3.4 38.1 0 0
14:00 1022 30.18 851 25.13 28.7 83.7 23 6 42.8 0 0
14:05 1022 30.18 851 25.13 29 84.2 23 6 42.8 0 0
14:10 1022 30.18 851 25.13 28.9 84 19 3.4 38.2 0 0
14:15 1022 30.18 851 25.13 28.8 83.9 18 2.4 36.3 0 0
14:20 1022 30.18 851 25.13 29 84.2 19 3.5 38.2 0 0
14:25 1022 30.18 851 25.13 29.1 84.4 16 0.9 33.5 0 0
14:30 1022 30.18 851 25.13 29.3 84.8 15 0.1 32.2 0 0
14:35 1022 30.18 851 25.13 29.4 84.8 17 2.1 35.7 0 0
14:40 1022 30.18 851 25.13 29.4 84.8 19 3.6 38.5 0 0
14:45 1022 30.18 851 25.13 29.4 85 14 -0.2 31.6 0 0
14:50 1022 30.18 851 25.13 29.5 85 17 2.4 36.4 0 0
14:55 1022 30.18 851 25.13 29.8 85.6 17 2.6 36.7 0 0
15:00 1022 30.18 851 25.13 29.9 85.7 14 -0.6 30.9 0 0
15:05 1022 30.18 851 25.13 29.9 85.7 13 -0.8 30.6 0 0
15:10 1022 30.18 851 25.13 29.7 85.5 11 -4 24.8 0 0
15:15 1022 30.18 851 25.13 30.1 86.1 12 -2.1 28.3 0 0
15:20 1022 30.18 851 25.13 30 86.1 12 -1.8 28.8 0 0
15:25 1021 30.15 851 25.13 29.9 85.7 14 0 32.1 0 0
15:30 1021 30.15 851 25.13 30 86 11 -2.9 26.8 0 0
15:35 1021 30.15 851 25.13 30.2 86.3 17 2.9 37.2 0 0
15:40 1021 30.15 851 25.13 30.3 86.6 12 -2 28.4 0 0
15:45 1021 30.15 851 25.13 30.3 86.5 13 -1.1 30 0 0
15:50 1021 30.15 850 25.1 30.6 87.1 13 -1.1 30 0 0
15:55 1021 30.15 850 25.1 30.3 86.5 12 -2.5 27.5 0 0
16:00 1021 30.15 850 25.1 30.2 86.4 13 -1.3 29.6 0 0
16:05 1021 30.15 850 25.1 30.3 86.5 14 0.4 32.7 0 0
16:10 1021 30.15 850 25.1 30.5 86.8 11 -2.6 27.3 0 0
16:15 1021 30.15 850 25.1 30.3 86.5 11 -2.9 26.8 0 0
16:20 1021 30.15 850 25.1 30.4 86.7 11 -3.3 26.1 0 0
16:25 1021 30.15 850 25.1 30.5 87 11 -3.5 25.7 0 0
16:30 1021 30.15 850 25.1 30.6 87.1 13 -0.5 31.1 0 0
16:35 1021 30.15 850 25.1 30.3 86.6 14 0.4 32.6 0 0
16:40 1021 30.15 850 25.1 30.4 86.7 11 -3 26.6 0 0
16:45 1021 30.15 850 25.1 30.5 86.9 14 0.1 32.1 0 0
16:50 1021 30.15 850 25.1 30.6 87 12 -1.6 29.1 0 0
16:55 1021 30.15 850 25.1 30.4 86.8 13 -0.9 30.4 0 0
17:00 1021 30.15 850 25.1 30.6 87.1 12 -1.3 29.7 0 0
17:05 1021 30.15 850 25.1 30.7 87.2 13 -0.6 31 0 0
17:10 1021 30.15 850 25.1 30.4 86.7 12 -1.7 29 0 0
17:15 1021 30.15 850 25.1 30.6 87 10 -4 24.9 0 0
17:20 1021 30.15 850 25.1 30.9 87.6 14 0.2 32.3 0 0
17:25 1021 30.15 850 25.1 30.7 87.3 12 -1.2 29.8 0 0
17:30 1021 30.15 850 25.1 30.6 87 13 -0.3 31.4 0 0
17:35 1021 30.15 850 25.1 30.6 87.1 13 -0.3 31.5 0 0
17:40 1021 30.15 850 25.1 30.6 87.1 12 -1.8 28.8 0 0
17:45 1021 30.15 850 25.1 30.5 86.9 15 0.9 33.6 0 0
17:50 1021 30.15 850 25.1 30.4 86.8 13 -0.9 30.4 0 0
17:55 1021 30.15 850 25.1 30.5 86.8 13 -1.1 30 0 0
18:00 1021 30.15 850 25.1 30.4 86.7 13 -1.2 29.9 0 0
18:05 1020 30.12 850 25.1 30.3 86.5 14 0.6 33 0 0
18:10 1020 30.12 850 25.1 30.5 86.8 14 0.3 32.5 0 0
18:15 1020 30.12 850 25.1 30.3 86.6 11 -3.6 25.6 0 0
18:20 1020 30.12 850 25.1 30.6 87 13 -0.3 31.4 0 0
18:25 1020 30.12 850 25.1 30.5 86.9 11 -3 26.6 0 0
18:30 1020 30.12 850 25.1 30.3 86.5 16 1.8 35.2 0 0
18:35 1020 30.12 850 25.1 29.7 85.5 11 -3.2 26.2 0 0
18:40 1020 30.12 849 25.07 29.8 85.6 14 -0.1 31.8 0 0
18:45 1020 30.12 849 25.07 29.7 85.5 16 1.3 34.4 0 0
18:50 1020 30.12 849 25.07 29.4 84.9 15 0.4 32.7 0 0
18:55 1020 30.12 849 25.07 29.2 84.5 15 -0.1 31.8 0 0
19:00 1020 30.12 849 25.07 29.1 84.3 15 -0.3 31.5 0 0
19:05 1020 30.12 849 25.07 29 84.2 14 -0.8 30.6 0 0
19:10 1020 30.12 849 25.07 28.9 84.1 13 -1.7 28.9 0 0
19:15 1020 30.12 849 25.07 29.2 84.6 14 -0.3 31.4 0 0
19:20 1020 30.12 849 25.07 29 84.1 15 -0.2 31.7 0 0
19:25 1020 30.12 849 25.07 28.6 83.4 15 -0.6 31 0 0
19:30 1020 30.12 849 25.07 28.4 83 16 0.4 32.8 0 0
19:35 1020 30.12 849 25.07 28.3 83 14 -1.3 29.7 0 0
19:40 1020 30.12 849 25.07 27.3 81.2 23 4.5 40.2 0 0
19:45 1020 30.12 849 25.07 25.9 78.5 28 6.4 43.6 0 0
19:50 1020 30.12 849 25.07 24.4 75.9 32 6.7 44.1 0 0
19:55 1020 30.12 849 25.07 23.1 73.5 37 7.7 45.9 0 0
20:00 1020 30.12 849 25.07 22.6 72.7 33 5.6 42.1 0 0
20:05 1020 30.12 849 25.07 22.7 72.9 35 6.7 44.1 0 0
20:10 1020 30.12 849 25.07 21.5 70.6 45 9.3 48.8 0 0
20:15 1020 30.12 849 25.07 19.5 67.2 45 7.4 45.3 0 0
20:20 1020 30.12 849 25.07 18.7 65.6 43 5.9 42.6 0 0
20:25 1020 30.12 849 25.07 18.5 65.2 38 4.1 39.5 0 0
20:30 1020 30.12 849 25.07 18.7 65.6 37 4 39.2 0 0
20:35 1020 30.12 849 25.07 18.2 64.7 38 3.9 39.1 0 0
20:40 1020 30.12 849 25.07 18 64.4 34 2.2 35.9 0 0
20:45 1020 30.12 850 25.1 18 64.5 35 2.4 36.3 0 0
20:50 1020 30.12 850 25.1 18 64.4 32 1.1 34 0 0
20:55 1020 30.12 850 25.1 18.3 64.9 32 1.5 34.8 0 0
21:00 1020 30.12 850 25.1 18.1 64.5 33 1.5 34.7 0 0
21:05 1020 30.12 850 25.1 17.7 63.9 31 0.6 33 0 0
21:10 1021 30.15 850 25.1 18.2 64.8 30 0.6 33.1 0 0
21:15 1021 30.15 850 25.1 18.3 65 31 1.2 34.2 0 0
21:20 1021 30.15 850 25.1 18.1 64.6 33 1.9 35.4 0 0
21:25 1021 30.15 850 25.1 17.7 63.8 33 1.3 34.4 0 0
21:30 1021 30.15 850 25.1 17.8 64 32 0.9 33.6 0 0
21:35 1021 30.15 850 25.1 18.7 65.6 26 -1.3 29.7 0 0
21:40 1021 30.15 850 25.1 20.2 68.4 24 -0.7 30.7 0 0
21:45 1021 30.15 850 25.1 20.9 69.5 21 -1.8 28.8 0 0
21:50 1021 30.15 850 25.1 21.3 70.3 22 -1.1 30.1 0 0
21:55 1021 30.15 850 25.1 21 69.8 22 -1.3 29.7 0 0
22:00 1021 30.15 850 25.1 21.3 70.3 21 -1.8 28.8 0 0
22:05 1021 30.15 850 25.1 21.4 70.5 22 -0.8 30.6 0 0
22:10 1021 30.15 850 25.1 20.1 68.2 25 -0.2 31.6 0 0
22:15 1021 30.15 850 25.1 19.1 66.4 26 -0.5 31.1 0 0
22:20 1021 30.15 850 25.1 19 66.1 26 -0.8 30.5 0 0
22:25 1021 30.15 850 25.1 19.2 66.5 27 -0.3 31.4 0 0
22:30 1021 30.15 850 25.1 18.7 65.6 29 0.3 32.5 0 0
22:35 1021 30.15 850 25.1 18.2 64.8 27 -1.1 30 0 0
22:40 1021 30.15 850 25.1 18.8 65.8 27 -0.2 31.6 0 0
22:45 1021 30.15 850 25.1 18.6 65.5 28 -0.1 31.8 0 0
22:50 1021 30.15 850 25.1 18.8 65.8 26 -1.1 30 0 0
22:55 1021 30.15 850 25.1 19.1 66.4 27 -0.4 31.3 0 0
23:00 1021 30.15 850 25.1 19.1 66.3 26 -1 30.2 0 0
23:05 1021 30.15 850 25.1 19.7 67.4 24 -1.5 29.2 0 0
23:10 1021 30.15 850 25.1 20 68 23 -1.3 29.6 0 0
23:15 1021 30.15 850 25.1 19.8 67.6 24 -1 30.3 0 0
23:20 1021 30.15 850 25.1 19.5 67.1 25 -1 30.2 0 0
23:25 1021 30.15 850 25.1 19.2 66.6 25 -0.9 30.4 0 0
23:30 1021 30.15 850 25.1 18.7 65.7 27 -0.3 31.4 0 0
23:35 1021 30.15 850 25.1 18 64.4 28 -0.7 30.7 0 0
23:40 1021 30.15 850 25.1 17.6 63.8 29 -0.5 31.1 0 0
23:45 1021 30.15 850 25.1 18.1 64.7 25 -2 28.3 0 0
23:50 1021 30.15 850 25.1 19.8 67.7 23 -1.5 29.3 0 0
23:55 1021 30.15 850 25.1 21 69.8 22 -1.1 30.1 0 0
24:00 1021 30.15 850 25.1 21.6 70.9 22 -0.8 30.6 0 0